sensor_id;sensor_type;location;lat;lon;timestamp;P1;durP1;ratioP1;P2;durP2;ratioP2
61036;SDS011;57313;47.040;15.498;2022-11-20T00:02:14;21.25;;;9.55;;
61036;SDS011;57313;47.040;15.498;2022-11-20T00:04:43;20.52;;;8.43;;
61036;SDS011;57313;47.040;15.498;2022-11-20T00:07:10;18.30;;;8.68;;
61036;SDS011;57313;47.040;15.498;2022-11-20T00:09:38;20.75;;;8.45;;
61036;SDS011;57313;47.040;15.498;2022-11-20T00:12:05;20.55;;;7.85;;
61036;SDS011;57313;47.040;15.498;2022-11-20T00:14:33;17.52;;;8.35;;
61036;SDS011;57313;47.040;15.498;2022-11-20T00:17:00;17.70;;;8.50;;
61036;SDS011;57313;47.040;15.498;2022-11-20T00:19:27;19.88;;;9.63;;
61036;SDS011;57313;47.040;15.498;2022-11-20T00:21:55;18.40;;;8.68;;
61036;SDS011;57313;47.040;15.498;2022-11-20T00:24:22;18.33;;;8.20;;
61036;SDS011;57313;47.040;15.498;2022-11-20T00:26:50;19.10;;;9.77;;
61036;SDS011;57313;47.040;15.498;2022-11-20T00:29:17;20.40;;;9.18;;
61036;SDS011;57313;47.040;15.498;2022-11-20T00:31:45;20.95;;;7.90;;
61036;SDS011;57313;47.040;15.498;2022-11-20T00:34:12;19.15;;;8.35;;
61036;SDS011;57313;47.040;15.498;2022-11-20T00:36:40;21.52;;;8.48;;
61036;SDS011;57313;47.040;15.498;2022-11-20T00:39:08;19.85;;;8.85;;
61036;SDS011;57313;47.040;15.498;2022-11-20T00:41:35;20.52;;;7.68;;
61036;SDS011;57313;47.040;15.498;2022-11-20T00:44:03;20.23;;;8.65;;
61036;SDS011;57313;47.040;15.498;2022-11-20T00:46:31;16.25;;;8.13;;
61036;SDS011;57313;47.040;15.498;2022-11-20T00:48:59;18.92;;;9.50;;
61036;SDS011;57313;47.040;15.498;2022-11-20T00:51:26;18.20;;;8.75;;
61036;SDS011;57313;47.040;15.498;2022-11-20T00:53:55;20.00;;;9.55;;
61036;SDS011;57313;47.040;15.498;2022-11-20T00:56:25;17.50;;;8.13;;
61036;SDS011;57313;47.040;15.498;2022-11-20T00:58:52;19.30;;;9.52;;
61036;SDS011;57313;47.040;15.498;2022-11-20T01:01:21;18.08;;;8.25;;
61036;SDS011;57313;47.040;15.498;2022-11-20T01:03:50;21.52;;;8.25;;
61036;SDS011;57313;47.040;15.498;2022-11-20T01:06:19;18.27;;;7.70;;
61036;SDS011;57313;47.040;15.498;2022-11-20T01:08:49;17.60;;;8.00;;
61036;SDS011;57313;47.040;15.498;2022-11-20T01:11:18;17.48;;;8.88;;
61036;SDS011;57313;47.040;15.498;2022-11-20T01:13:50;20.50;;;7.95;;
61036;SDS011;57313;47.040;15.498;2022-11-20T01:16:19;21.15;;;9.43;;
61036;SDS011;57313;47.040;15.498;2022-11-20T01:18:48;19.02;;;9.48;;
61036;SDS011;57313;47.040;15.498;2022-11-20T01:21:18;18.13;;;8.32;;
61036;SDS011;57313;47.040;15.498;2022-11-20T01:23:47;19.15;;;9.30;;
61036;SDS011;57313;47.040;15.498;2022-11-20T01:26:16;17.42;;;8.52;;
61036;SDS011;57313;47.040;15.498;2022-11-20T01:28:46;17.90;;;8.38;;
61036;SDS011;57313;47.040;15.498;2022-11-20T01:31:16;16.55;;;8.48;;
61036;SDS011;57313;47.040;15.498;2022-11-20T01:33:44;17.10;;;7.63;;
61036;SDS011;57313;47.040;15.498;2022-11-20T01:36:13;16.65;;;8.43;;
61036;SDS011;57313;47.040;15.498;2022-11-20T01:38:41;15.55;;;7.85;;
61036;SDS011;57313;47.040;15.498;2022-11-20T01:41:09;18.30;;;8.07;;
61036;SDS011;57313;47.040;15.498;2022-11-20T01:43:38;17.58;;;7.38;;
61036;SDS011;57313;47.040;15.498;2022-11-20T01:46:13;18.95;;;8.40;;
61036;SDS011;57313;47.040;15.498;2022-11-20T01:48:45;15.63;;;7.65;;
61036;SDS011;57313;47.040;15.498;2022-11-20T01:51:18;19.73;;;9.40;;
61036;SDS011;57313;47.040;15.498;2022-11-20T01:53:51;17.27;;;8.90;;
61036;SDS011;57313;47.040;15.498;2022-11-20T01:56:23;19.08;;;9.02;;
61036;SDS011;57313;47.040;15.498;2022-11-20T01:58:54;19.17;;;8.40;;
61036;SDS011;57313;47.040;15.498;2022-11-20T02:01:26;19.77;;;8.32;;
61036;SDS011;57313;47.040;15.498;2022-11-20T02:03:54;19.33;;;8.45;;
61036;SDS011;57313;47.040;15.498;2022-11-20T02:06:23;17.88;;;7.30;;
61036;SDS011;57313;47.040;15.498;2022-11-20T02:08:52;18.40;;;8.18;;
61036;SDS011;57313;47.040;15.498;2022-11-20T02:11:21;20.33;;;8.02;;
61036;SDS011;57313;47.040;15.498;2022-11-20T02:13:49;14.43;;;6.65;;
61036;SDS011;57313;47.040;15.498;2022-11-20T02:16:19;13.02;;;6.95;;
61036;SDS011;57313;47.040;15.498;2022-11-20T02:18:51;18.70;;;8.75;;
61036;SDS011;57313;47.040;15.498;2022-11-20T02:21:25;16.65;;;7.93;;
61036;SDS011;57313;47.040;15.498;2022-11-20T02:24:08;18.98;;;7.65;;
61036;SDS011;57313;47.040;15.498;2022-11-20T02:26:40;16.95;;;8.25;;
61036;SDS011;57313;47.040;15.498;2022-11-20T02:29:11;15.93;;;7.05;;
61036;SDS011;57313;47.040;15.498;2022-11-20T02:31:41;17.90;;;8.18;;
61036;SDS011;57313;47.040;15.498;2022-11-20T02:34:10;15.75;;;7.53;;
61036;SDS011;57313;47.040;15.498;2022-11-20T02:36:38;15.85;;;7.25;;
61036;SDS011;57313;47.040;15.498;2022-11-20T02:39:10;18.20;;;6.60;;
61036;SDS011;57313;47.040;15.498;2022-11-20T02:41:39;17.52;;;8.32;;
61036;SDS011;57313;47.040;15.498;2022-11-20T02:44:06;18.10;;;8.93;;
61036;SDS011;57313;47.040;15.498;2022-11-20T02:46:34;15.70;;;7.28;;
61036;SDS011;57313;47.040;15.498;2022-11-20T02:49:02;15.55;;;7.55;;
61036;SDS011;57313;47.040;15.498;2022-11-20T02:51:30;15.68;;;6.95;;
61036;SDS011;57313;47.040;15.498;2022-11-20T02:53:58;15.23;;;6.90;;
61036;SDS011;57313;47.040;15.498;2022-11-20T02:56:28;19.77;;;7.38;;
61036;SDS011;57313;47.040;15.498;2022-11-20T02:58:56;16.25;;;7.20;;
61036;SDS011;57313;47.040;15.498;2022-11-20T03:01:23;19.52;;;8.43;;
61036;SDS011;57313;47.040;15.498;2022-11-20T03:03:51;19.35;;;8.68;;
61036;SDS011;57313;47.040;15.498;2022-11-20T03:06:18;15.48;;;6.70;;
61036;SDS011;57313;47.040;15.498;2022-11-20T03:08:46;18.15;;;7.50;;
61036;SDS011;57313;47.040;15.498;2022-11-20T03:11:13;15.52;;;6.63;;
61036;SDS011;57313;47.040;15.498;2022-11-20T03:13:43;17.35;;;7.85;;
61036;SDS011;57313;47.040;15.498;2022-11-20T03:16:11;15.45;;;7.20;;
61036;SDS011;57313;47.040;15.498;2022-11-20T03:18:40;16.63;;;6.75;;
61036;SDS011;57313;47.040;15.498;2022-11-20T03:21:08;16.33;;;6.90;;
61036;SDS011;57313;47.040;15.498;2022-11-20T03:23:37;15.82;;;7.05;;
61036;SDS011;57313;47.040;15.498;2022-11-20T03:26:10;16.13;;;7.75;;
61036;SDS011;57313;47.040;15.498;2022-11-20T03:28:41;15.30;;;7.22;;
61036;SDS011;57313;47.040;15.498;2022-11-20T03:31:15;16.85;;;8.55;;
61036;SDS011;57313;47.040;15.498;2022-11-20T03:33:43;17.38;;;6.90;;
61036;SDS011;57313;47.040;15.498;2022-11-20T03:36:11;18.65;;;8.05;;
61036;SDS011;57313;47.040;15.498;2022-11-20T03:38:41;15.50;;;7.03;;
61036;SDS011;57313;47.040;15.498;2022-11-20T03:41:09;18.00;;;7.28;;
61036;SDS011;57313;47.040;15.498;2022-11-20T03:43:37;13.30;;;6.53;;
61036;SDS011;57313;47.040;15.498;2022-11-20T03:46:07;13.57;;;6.38;;
61036;SDS011;57313;47.040;15.498;2022-11-20T03:48:34;15.82;;;6.90;;
61036;SDS011;57313;47.040;15.498;2022-11-20T03:51:08;16.92;;;7.70;;
61036;SDS011;57313;47.040;15.498;2022-11-20T03:53:37;20.88;;;8.45;;
61036;SDS011;57313;47.040;15.498;2022-11-20T03:56:05;15.32;;;7.18;;
61036;SDS011;57313;47.040;15.498;2022-11-20T03:58:34;16.60;;;7.55;;
61036;SDS011;57313;47.040;15.498;2022-11-20T04:01:07;14.88;;;7.35;;
61036;SDS011;57313;47.040;15.498;2022-11-20T04:03:36;16.17;;;7.07;;
61036;SDS011;57313;47.040;15.498;2022-11-20T04:06:05;18.98;;;7.05;;
61036;SDS011;57313;47.040;15.498;2022-11-20T04:08:34;19.27;;;7.25;;
61036;SDS011;57313;47.040;15.498;2022-11-20T04:11:09;16.10;;;6.40;;
61036;SDS011;57313;47.040;15.498;2022-11-20T04:13:38;16.10;;;7.68;;
61036;SDS011;57313;47.040;15.498;2022-11-20T04:16:08;19.95;;;7.50;;
61036;SDS011;57313;47.040;15.498;2022-11-20T04:18:36;17.25;;;7.80;;
61036;SDS011;57313;47.040;15.498;2022-11-20T04:21:04;16.42;;;6.80;;
61036;SDS011;57313;47.040;15.498;2022-11-20T04:23:33;16.42;;;8.00;;
61036;SDS011;57313;47.040;15.498;2022-11-20T04:26:02;15.73;;;7.85;;
61036;SDS011;57313;47.040;15.498;2022-11-20T04:28:30;16.30;;;7.35;;
61036;SDS011;57313;47.040;15.498;2022-11-20T04:31:02;17.85;;;8.80;;
61036;SDS011;57313;47.040;15.498;2022-11-20T04:33:33;18.20;;;6.85;;
61036;SDS011;57313;47.040;15.498;2022-11-20T04:36:01;17.52;;;7.63;;
61036;SDS011;57313;47.040;15.498;2022-11-20T04:38:30;15.40;;;7.20;;
61036;SDS011;57313;47.040;15.498;2022-11-20T04:40:57;15.95;;;7.13;;
61036;SDS011;57313;47.040;15.498;2022-11-20T04:43:25;15.55;;;7.25;;
61036;SDS011;57313;47.040;15.498;2022-11-20T04:45:53;19.88;;;8.77;;
61036;SDS011;57313;47.040;15.498;2022-11-20T04:48:20;17.38;;;8.30;;
61036;SDS011;57313;47.040;15.498;2022-11-20T04:50:49;17.75;;;7.95;;
61036;SDS011;57313;47.040;15.498;2022-11-20T04:53:16;19.98;;;7.43;;
61036;SDS011;57313;47.040;15.498;2022-11-20T04:55:45;19.10;;;8.68;;
61036;SDS011;57313;47.040;15.498;2022-11-20T04:58:12;18.02;;;7.90;;
61036;SDS011;57313;47.040;15.498;2022-11-20T05:00:40;21.98;;;8.70;;
61036;SDS011;57313;47.040;15.498;2022-11-20T05:03:07;14.77;;;6.80;;
61036;SDS011;57313;47.040;15.498;2022-11-20T05:05:35;15.55;;;9.00;;
61036;SDS011;57313;47.040;15.498;2022-11-20T05:08:04;17.55;;;7.65;;
61036;SDS011;57313;47.040;15.498;2022-11-20T05:10:31;17.33;;;8.65;;
61036;SDS011;57313;47.040;15.498;2022-11-20T05:12:59;19.95;;;9.52;;
61036;SDS011;57313;47.040;15.498;2022-11-20T05:15:26;16.67;;;7.20;;
61036;SDS011;57313;47.040;15.498;2022-11-20T05:17:53;18.25;;;9.20;;
61036;SDS011;57313;47.040;15.498;2022-11-20T05:20:20;15.25;;;7.53;;
61036;SDS011;57313;47.040;15.498;2022-11-20T05:22:48;20.45;;;8.25;;
61036;SDS011;57313;47.040;15.498;2022-11-20T05:25:17;17.80;;;8.88;;
61036;SDS011;57313;47.040;15.498;2022-11-20T05:27:44;17.85;;;8.80;;
61036;SDS011;57313;47.040;15.498;2022-11-20T05:30:12;15.25;;;7.47;;
61036;SDS011;57313;47.040;15.498;2022-11-20T05:32:40;16.35;;;8.05;;
61036;SDS011;57313;47.040;15.498;2022-11-20T05:35:07;16.20;;;6.75;;
61036;SDS011;57313;47.040;15.498;2022-11-20T05:37:34;18.85;;;8.82;;
61036;SDS011;57313;47.040;15.498;2022-11-20T05:40:01;17.17;;;7.65;;
61036;SDS011;57313;47.040;15.498;2022-11-20T05:42:31;17.23;;;8.20;;
61036;SDS011;57313;47.040;15.498;2022-11-20T05:44:58;19.55;;;8.20;;
61036;SDS011;57313;47.040;15.498;2022-11-20T05:47:27;18.77;;;9.02;;
61036;SDS011;57313;47.040;15.498;2022-11-20T05:49:58;21.30;;;6.97;;
61036;SDS011;57313;47.040;15.498;2022-11-20T05:52:27;20.35;;;8.90;;
61036;SDS011;57313;47.040;15.498;2022-11-20T05:54:55;17.65;;;8.27;;
61036;SDS011;57313;47.040;15.498;2022-11-20T05:57:23;21.92;;;9.25;;
61036;SDS011;57313;47.040;15.498;2022-11-20T05:59:51;23.02;;;10.27;;
61036;SDS011;57313;47.040;15.498;2022-11-20T06:02:19;17.88;;;8.30;;
61036;SDS011;57313;47.040;15.498;2022-11-20T06:04:47;13.77;;;7.00;;
61036;SDS011;57313;47.040;15.498;2022-11-20T06:07:14;18.42;;;7.97;;
61036;SDS011;57313;47.040;15.498;2022-11-20T06:09:42;17.63;;;7.93;;
61036;SDS011;57313;47.040;15.498;2022-11-20T06:12:09;16.92;;;7.57;;
61036;SDS011;57313;47.040;15.498;2022-11-20T06:14:37;15.45;;;7.60;;
61036;SDS011;57313;47.040;15.498;2022-11-20T06:17:06;15.05;;;7.55;;
61036;SDS011;57313;47.040;15.498;2022-11-20T06:19:33;18.50;;;8.15;;
61036;SDS011;57313;47.040;15.498;2022-11-20T06:22:01;17.63;;;7.28;;
61036;SDS011;57313;47.040;15.498;2022-11-20T06:24:29;12.32;;;6.25;;
61036;SDS011;57313;47.040;15.498;2022-11-20T06:26:56;13.77;;;6.10;;
61036;SDS011;57313;47.040;15.498;2022-11-20T06:29:24;15.75;;;7.28;;
61036;SDS011;57313;47.040;15.498;2022-11-20T06:31:59;17.13;;;7.15;;
61036;SDS011;57313;47.040;15.498;2022-11-20T06:34:28;16.40;;;7.63;;
61036;SDS011;57313;47.040;15.498;2022-11-20T06:36:55;14.98;;;7.40;;
61036;SDS011;57313;47.040;15.498;2022-11-20T06:39:22;12.88;;;6.05;;
61036;SDS011;57313;47.040;15.498;2022-11-20T06:41:50;13.93;;;6.32;;
61036;SDS011;57313;47.040;15.498;2022-11-20T06:44:24;15.85;;;7.78;;
61036;SDS011;57313;47.040;15.498;2022-11-20T06:46:51;16.15;;;7.22;;
61036;SDS011;57313;47.040;15.498;2022-11-20T06:49:19;13.10;;;6.63;;
61036;SDS011;57313;47.040;15.498;2022-11-20T06:51:48;13.82;;;5.63;;
61036;SDS011;57313;47.040;15.498;2022-11-20T06:54:16;17.50;;;7.32;;
61036;SDS011;57313;47.040;15.498;2022-11-20T06:56:46;14.30;;;6.43;;
61036;SDS011;57313;47.040;15.498;2022-11-20T06:59:13;14.65;;;6.55;;
61036;SDS011;57313;47.040;15.498;2022-11-20T07:01:40;14.40;;;7.15;;
61036;SDS011;57313;47.040;15.498;2022-11-20T07:04:07;15.85;;;7.57;;
61036;SDS011;57313;47.040;15.498;2022-11-20T07:06:34;13.80;;;6.95;;
61036;SDS011;57313;47.040;15.498;2022-11-20T07:09:03;16.70;;;7.45;;
61036;SDS011;57313;47.040;15.498;2022-11-20T07:11:37;13.95;;;6.50;;
61036;SDS011;57313;47.040;15.498;2022-11-20T07:14:04;14.52;;;6.78;;
61036;SDS011;57313;47.040;15.498;2022-11-20T07:16:31;13.95;;;6.60;;
61036;SDS011;57313;47.040;15.498;2022-11-20T07:18:59;15.93;;;7.00;;
61036;SDS011;57313;47.040;15.498;2022-11-20T07:21:26;16.35;;;7.07;;
61036;SDS011;57313;47.040;15.498;2022-11-20T07:23:53;15.82;;;7.50;;
61036;SDS011;57313;47.040;15.498;2022-11-20T07:26:21;16.65;;;7.15;;
61036;SDS011;57313;47.040;15.498;2022-11-20T07:28:48;14.93;;;5.00;;
61036;SDS011;57313;47.040;15.498;2022-11-20T07:31:16;14.23;;;6.90;;
61036;SDS011;57313;47.040;15.498;2022-11-20T07:33:45;13.98;;;6.10;;
61036;SDS011;57313;47.040;15.498;2022-11-20T07:36:13;13.40;;;6.10;;
61036;SDS011;57313;47.040;15.498;2022-11-20T07:38:40;14.30;;;6.90;;
61036;SDS011;57313;47.040;15.498;2022-11-20T07:41:07;16.23;;;6.70;;
61036;SDS011;57313;47.040;15.498;2022-11-20T07:43:36;15.23;;;5.90;;
61036;SDS011;57313;47.040;15.498;2022-11-20T07:46:07;13.35;;;6.43;;
61036;SDS011;57313;47.040;15.498;2022-11-20T07:48:34;12.93;;;5.50;;
61036;SDS011;57313;47.040;15.498;2022-11-20T07:51:01;11.93;;;5.82;;
61036;SDS011;57313;47.040;15.498;2022-11-20T07:53:29;16.20;;;7.30;;
61036;SDS011;57313;47.040;15.498;2022-11-20T07:55:59;14.50;;;6.82;;
61036;SDS011;57313;47.040;15.498;2022-11-20T07:58:26;16.10;;;6.68;;
61036;SDS011;57313;47.040;15.498;2022-11-20T08:00:57;13.98;;;6.65;;
61036;SDS011;57313;47.040;15.498;2022-11-20T08:03:24;15.68;;;6.70;;
61036;SDS011;57313;47.040;15.498;2022-11-20T08:05:51;14.88;;;6.30;;
61036;SDS011;57313;47.040;15.498;2022-11-20T08:08:19;14.18;;;6.47;;
61036;SDS011;57313;47.040;15.498;2022-11-20T08:10:46;15.65;;;6.95;;
61036;SDS011;57313;47.040;15.498;2022-11-20T08:13:13;13.70;;;5.55;;
61036;SDS011;57313;47.040;15.498;2022-11-20T08:15:41;12.38;;;6.32;;
61036;SDS011;57313;47.040;15.498;2022-11-20T08:18:15;14.00;;;6.45;;
61036;SDS011;57313;47.040;15.498;2022-11-20T08:21:01;11.68;;;5.75;;
61036;SDS011;57313;47.040;15.498;2022-11-20T08:23:29;13.80;;;6.15;;
61036;SDS011;57313;47.040;15.498;2022-11-20T08:25:56;15.10;;;6.50;;
61036;SDS011;57313;47.040;15.498;2022-11-20T08:28:24;16.48;;;6.20;;
61036;SDS011;57313;47.040;15.498;2022-11-20T08:30:51;19.08;;;6.85;;
61036;SDS011;57313;47.040;15.498;2022-11-20T08:33:26;15.75;;;7.68;;
61036;SDS011;57313;47.040;15.498;2022-11-20T08:35:53;16.75;;;7.43;;
61036;SDS011;57313;47.040;15.498;2022-11-20T08:38:20;15.52;;;6.45;;
61036;SDS011;57313;47.040;15.498;2022-11-20T08:40:47;13.18;;;6.45;;
61036;SDS011;57313;47.040;15.498;2022-11-20T08:43:14;16.73;;;6.30;;
61036;SDS011;57313;47.040;15.498;2022-11-20T08:45:41;14.70;;;6.60;;
61036;SDS011;57313;47.040;15.498;2022-11-20T08:48:09;15.40;;;7.07;;
61036;SDS011;57313;47.040;15.498;2022-11-20T08:50:38;16.40;;;7.63;;
61036;SDS011;57313;47.040;15.498;2022-11-20T08:53:06;14.90;;;7.32;;
61036;SDS011;57313;47.040;15.498;2022-11-20T08:55:33;16.23;;;6.07;;
61036;SDS011;57313;47.040;15.498;2022-11-20T08:58:03;16.90;;;7.72;;
61036;SDS011;57313;47.040;15.498;2022-11-20T09:00:30;14.20;;;6.65;;
61036;SDS011;57313;47.040;15.498;2022-11-20T09:02:57;14.25;;;6.65;;
61036;SDS011;57313;47.040;15.498;2022-11-20T09:05:24;17.08;;;7.10;;
61036;SDS011;57313;47.040;15.498;2022-11-20T09:07:55;18.27;;;7.65;;
61036;SDS011;57313;47.040;15.498;2022-11-20T09:10:22;20.60;;;7.97;;
61036;SDS011;57313;47.040;15.498;2022-11-20T09:12:51;17.73;;;7.47;;
61036;SDS011;57313;47.040;15.498;2022-11-20T09:15:18;18.33;;;8.82;;
61036;SDS011;57313;47.040;15.498;2022-11-20T09:17:50;15.70;;;7.35;;
61036;SDS011;57313;47.040;15.498;2022-11-20T09:20:18;17.08;;;8.05;;
61036;SDS011;57313;47.040;15.498;2022-11-20T09:22:46;16.33;;;8.35;;
61036;SDS011;57313;47.040;15.498;2022-11-20T09:25:15;17.38;;;7.95;;
61036;SDS011;57313;47.040;15.498;2022-11-20T09:27:43;18.15;;;8.68;;
61036;SDS011;57313;47.040;15.498;2022-11-20T09:30:11;19.48;;;8.57;;
61036;SDS011;57313;47.040;15.498;2022-11-20T09:32:39;18.02;;;9.25;;
61036;SDS011;57313;47.040;15.498;2022-11-20T09:35:08;23.63;;;10.45;;
61036;SDS011;57313;47.040;15.498;2022-11-20T09:37:36;19.05;;;9.50;;
61036;SDS011;57313;47.040;15.498;2022-11-20T09:40:04;18.02;;;9.80;;
61036;SDS011;57313;47.040;15.498;2022-11-20T09:42:34;20.00;;;9.80;;
61036;SDS011;57313;47.040;15.498;2022-11-20T09:45:13;20.65;;;9.52;;
61036;SDS011;57313;47.040;15.498;2022-11-20T09:47:52;19.65;;;9.13;;
61036;SDS011;57313;47.040;15.498;2022-11-20T09:50:31;19.83;;;9.75;;
61036;SDS011;57313;47.040;15.498;2022-11-20T09:53:12;21.98;;;9.82;;
61036;SDS011;57313;47.040;15.498;2022-11-20T09:55:44;19.42;;;10.07;;
61036;SDS011;57313;47.040;15.498;2022-11-20T09:58:15;17.52;;;8.40;;
61036;SDS011;57313;47.040;15.498;2022-11-20T10:00:49;18.60;;;9.07;;
61036;SDS011;57313;47.040;15.498;2022-11-20T10:03:21;20.02;;;9.35;;
61036;SDS011;57313;47.040;15.498;2022-11-20T10:06:01;24.73;;;10.50;;
61036;SDS011;57313;47.040;15.498;2022-11-20T10:08:33;21.95;;;11.35;;
61036;SDS011;57313;47.040;15.498;2022-11-20T10:11:08;17.80;;;9.43;;
61036;SDS011;57313;47.040;15.498;2022-11-20T10:13:45;18.98;;;9.80;;
61036;SDS011;57313;47.040;15.498;2022-11-20T10:16:21;19.42;;;9.48;;
61036;SDS011;57313;47.040;15.498;2022-11-20T10:19:09;19.83;;;10.38;;
61036;SDS011;57313;47.040;15.498;2022-11-20T10:21:54;18.03;;;8.77;;
61036;SDS011;57313;47.040;15.498;2022-11-20T10:24:35;17.13;;;8.48;;
61036;SDS011;57313;47.040;15.498;2022-11-20T10:27:15;16.88;;;8.00;;
61036;SDS011;57313;47.040;15.498;2022-11-20T10:30:09;21.67;;;9.43;;
61036;SDS011;57313;47.040;15.498;2022-11-20T10:32:38;19.83;;;8.88;;
61036;SDS011;57313;47.040;15.498;2022-11-20T10:35:14;21.70;;;10.43;;
61036;SDS011;57313;47.040;15.498;2022-11-20T10:37:48;21.10;;;9.27;;
61036;SDS011;57313;47.040;15.498;2022-11-20T10:40:23;23.67;;;9.68;;
61036;SDS011;57313;47.040;15.498;2022-11-20T10:42:56;19.05;;;9.63;;
61036;SDS011;57313;47.040;15.498;2022-11-20T10:45:33;20.63;;;10.07;;
61036;SDS011;57313;47.040;15.498;2022-11-20T10:48:15;19.58;;;10.27;;
61036;SDS011;57313;47.040;15.498;2022-11-20T10:50:49;24.52;;;9.50;;
61036;SDS011;57313;47.040;15.498;2022-11-20T10:53:40;19.45;;;9.07;;
61036;SDS011;57313;47.040;15.498;2022-11-20T10:56:17;19.17;;;9.35;;
61036;SDS011;57313;47.040;15.498;2022-11-20T10:58:50;20.35;;;10.15;;
61036;SDS011;57313;47.040;15.498;2022-11-20T11:01:29;18.33;;;8.75;;
61036;SDS011;57313;47.040;15.498;2022-11-20T11:03:56;17.42;;;7.90;;
61036;SDS011;57313;47.040;15.498;2022-11-20T11:06:27;16.85;;;8.98;;
61036;SDS011;57313;47.040;15.498;2022-11-20T11:09:01;18.88;;;9.43;;
61036;SDS011;57313;47.040;15.498;2022-11-20T11:11:36;21.23;;;10.02;;
61036;SDS011;57313;47.040;15.498;2022-11-20T11:14:05;17.42;;;8.98;;
61036;SDS011;57313;47.040;15.498;2022-11-20T11:16:35;19.98;;;9.25;;
61036;SDS011;57313;47.040;15.498;2022-11-20T11:19:05;23.20;;;8.90;;
61036;SDS011;57313;47.040;15.498;2022-11-20T11:21:37;17.88;;;9.15;;
61036;SDS011;57313;47.040;15.498;2022-11-20T11:24:04;17.27;;;8.00;;
61036;SDS011;57313;47.040;15.498;2022-11-20T11:26:52;18.90;;;9.48;;
61036;SDS011;57313;47.040;15.498;2022-11-20T11:29:23;17.02;;;8.13;;
61036;SDS011;57313;47.040;15.498;2022-11-20T11:32:02;17.90;;;8.20;;
61036;SDS011;57313;47.040;15.498;2022-11-20T11:34:30;17.40;;;7.22;;
61036;SDS011;57313;47.040;15.498;2022-11-20T11:36:57;18.73;;;8.68;;
61036;SDS011;57313;47.040;15.498;2022-11-20T11:39:27;16.40;;;8.27;;
61036;SDS011;57313;47.040;15.498;2022-11-20T11:42:01;16.80;;;8.00;;
61036;SDS011;57313;47.040;15.498;2022-11-20T11:44:29;15.65;;;7.97;;
61036;SDS011;57313;47.040;15.498;2022-11-20T11:47:00;14.90;;;7.00;;
61036;SDS011;57313;47.040;15.498;2022-11-20T11:49:28;18.75;;;8.38;;
61036;SDS011;57313;47.040;15.498;2022-11-20T11:52:00;15.32;;;6.97;;
61036;SDS011;57313;47.040;15.498;2022-11-20T11:54:40;16.23;;;7.53;;
61036;SDS011;57313;47.040;15.498;2022-11-20T11:57:16;14.75;;;6.90;;
61036;SDS011;57313;47.040;15.498;2022-11-20T11:59:54;15.65;;;7.57;;
61036;SDS011;57313;47.040;15.498;2022-11-20T12:02:31;16.50;;;7.70;;
61036;SDS011;57313;47.040;15.498;2022-11-20T12:05:06;15.48;;;7.75;;
61036;SDS011;57313;47.040;15.498;2022-11-20T12:07:43;12.93;;;5.93;;
61036;SDS011;57313;47.040;15.498;2022-11-20T12:10:19;11.13;;;5.00;;
61036;SDS011;57313;47.040;15.498;2022-11-20T12:12:51;15.02;;;5.55;;
61036;SDS011;57313;47.040;15.498;2022-11-20T12:15:29;14.45;;;6.50;;
61036;SDS011;57313;47.040;15.498;2022-11-20T12:18:00;16.67;;;7.40;;
61036;SDS011;57313;47.040;15.498;2022-11-20T12:20:29;12.93;;;5.80;;
61036;SDS011;57313;47.040;15.498;2022-11-20T12:23:02;10.70;;;4.10;;
61036;SDS011;57313;47.040;15.498;2022-11-20T12:25:35;9.90;;;4.32;;
61036;SDS011;57313;47.040;15.498;2022-11-20T12:28:22;9.93;;;4.25;;
61036;SDS011;57313;47.040;15.498;2022-11-20T12:31:16;12.95;;;5.55;;
61036;SDS011;57313;47.040;15.498;2022-11-20T12:33:58;14.00;;;5.88;;
61036;SDS011;57313;47.040;15.498;2022-11-20T12:36:41;11.27;;;5.05;;
61036;SDS011;57313;47.040;15.498;2022-11-20T12:39:20;13.70;;;4.97;;
61036;SDS011;57313;47.040;15.498;2022-11-20T12:42:02;9.65;;;4.38;;
61036;SDS011;57313;47.040;15.498;2022-11-20T12:44:55;10.15;;;4.00;;
61036;SDS011;57313;47.040;15.498;2022-11-20T12:47:33;8.55;;;3.80;;
61036;SDS011;57313;47.040;15.498;2022-11-20T12:50:16;7.18;;;2.95;;
61036;SDS011;57313;47.040;15.498;2022-11-20T12:53:01;7.63;;;2.72;;
61036;SDS011;57313;47.040;15.498;2022-11-20T12:55:33;7.65;;;3.28;;
61036;SDS011;57313;47.040;15.498;2022-11-20T12:58:09;8.98;;;3.47;;
61036;SDS011;57313;47.040;15.498;2022-11-20T13:00:42;9.68;;;4.25;;
61036;SDS011;57313;47.040;15.498;2022-11-20T13:03:26;7.70;;;2.92;;
61036;SDS011;57313;47.040;15.498;2022-11-20T13:06:12;8.65;;;3.17;;
61036;SDS011;57313;47.040;15.498;2022-11-20T13:08:43;9.27;;;3.42;;
61036;SDS011;57313;47.040;15.498;2022-11-20T13:11:19;10.27;;;4.22;;
61036;SDS011;57313;47.040;15.498;2022-11-20T13:14:00;10.35;;;4.57;;
61036;SDS011;57313;47.040;15.498;2022-11-20T13:16:36;11.05;;;4.95;;
61036;SDS011;57313;47.040;15.498;2022-11-20T13:19:09;13.13;;;5.15;;
61036;SDS011;57313;47.040;15.498;2022-11-20T13:21:42;15.32;;;5.00;;
61036;SDS011;57313;47.040;15.498;2022-11-20T13:24:20;13.80;;;5.60;;
61036;SDS011;57313;47.040;15.498;2022-11-20T13:27:01;14.18;;;5.38;;
61036;SDS011;57313;47.040;15.498;2022-11-20T13:29:45;14.02;;;5.70;;
61036;SDS011;57313;47.040;15.498;2022-11-20T13:32:14;13.32;;;5.38;;
61036;SDS011;57313;47.040;15.498;2022-11-20T13:34:54;12.95;;;5.55;;
61036;SDS011;57313;47.040;15.498;2022-11-20T13:37:29;11.30;;;4.90;;
61036;SDS011;57313;47.040;15.498;2022-11-20T13:40:19;11.18;;;4.63;;
61036;SDS011;57313;47.040;15.498;2022-11-20T13:42:55;10.60;;;4.72;;
61036;SDS011;57313;47.040;15.498;2022-11-20T13:45:27;12.27;;;4.82;;
61036;SDS011;57313;47.040;15.498;2022-11-20T13:47:58;12.35;;;4.88;;
61036;SDS011;57313;47.040;15.498;2022-11-20T13:50:38;11.60;;;4.50;;
61036;SDS011;57313;47.040;15.498;2022-11-20T13:53:24;16.65;;;5.00;;
61036;SDS011;57313;47.040;15.498;2022-11-20T13:56:09;11.02;;;4.28;;
61036;SDS011;57313;47.040;15.498;2022-11-20T13:58:45;10.90;;;4.05;;
61036;SDS011;57313;47.040;15.498;2022-11-20T14:01:29;10.98;;;4.47;;
61036;SDS011;57313;47.040;15.498;2022-11-20T14:03:58;12.32;;;4.13;;
61036;SDS011;57313;47.040;15.498;2022-11-20T14:06:33;11.00;;;4.43;;
61036;SDS011;57313;47.040;15.498;2022-11-20T14:09:11;8.98;;;4.00;;
61036;SDS011;57313;47.040;15.498;2022-11-20T14:11:45;10.20;;;3.95;;
61036;SDS011;57313;47.040;15.498;2022-11-20T14:14:16;10.38;;;3.85;;
61036;SDS011;57313;47.040;15.498;2022-11-20T14:16:47;12.43;;;4.00;;
61036;SDS011;57313;47.040;15.498;2022-11-20T14:19:28;10.27;;;3.92;;
61036;SDS011;57313;47.040;15.498;2022-11-20T14:22:07;12.65;;;4.38;;
61036;SDS011;57313;47.040;15.498;2022-11-20T14:24:40;12.50;;;4.25;;
61036;SDS011;57313;47.040;15.498;2022-11-20T14:27:11;8.43;;;3.58;;
61036;SDS011;57313;47.040;15.498;2022-11-20T14:29:41;9.73;;;4.00;;
61036;SDS011;57313;47.040;15.498;2022-11-20T14:32:11;9.88;;;3.45;;
61036;SDS011;57313;47.040;15.498;2022-11-20T14:34:41;8.75;;;3.63;;
61036;SDS011;57313;47.040;15.498;2022-11-20T14:37:13;13.48;;;4.15;;
61036;SDS011;57313;47.040;15.498;2022-11-20T14:39:50;8.63;;;3.55;;
61036;SDS011;57313;47.040;15.498;2022-11-20T14:42:20;10.50;;;4.25;;
61036;SDS011;57313;47.040;15.498;2022-11-20T14:44:49;9.57;;;4.05;;